sensor_id;sensor_type;location;lat;lon;timestamp;P1;durP1;ratioP1;P2;durP2;ratioP2
54167;SDS011;68429;50.958;3.592;2023-04-01T00:00:17;19.35;;;6.93;;
54167;SDS011;68429;50.958;3.592;2023-04-01T00:02:43;21.10;;;8.73;;
54167;SDS011;68429;50.958;3.592;2023-04-01T00:05:09;22.42;;;8.77;;
54167;SDS011;68429;50.958;3.592;2023-04-01T00:07:36;22.27;;;9.95;;
54167;SDS011;68429;50.958;3.592;2023-04-01T00:10:03;26.38;;;12.57;;
54167;SDS011;68429;50.958;3.592;2023-04-01T00:12:30;19.25;;;10.77;;
54167;SDS011;68429;50.958;3.592;2023-04-01T00:14:56;26.88;;;11.25;;
54167;SDS011;68429;50.958;3.592;2023-04-01T00:17:22;25.17;;;9.77;;
54167;SDS011;68429;50.958;3.592;2023-04-01T00:19:47;20.35;;;8.05;;
54167;SDS011;68429;50.958;3.592;2023-04-01T00:22:13;16.45;;;6.93;;
54167;SDS011;68429;50.958;3.592;2023-04-01T00:24:39;20.65;;;7.68;;
54167;SDS011;68429;50.958;3.592;2023-04-01T00:27:05;18.63;;;6.85;;
54167;SDS011;68429;50.958;3.592;2023-04-01T00:29:33;19.65;;;6.70;;
54167;SDS011;68429;50.958;3.592;2023-04-01T00:31:59;16.48;;;6.55;;
54167;SDS011;68429;50.958;3.592;2023-04-01T00:34:25;22.83;;;6.80;;
54167;SDS011;68429;50.958;3.592;2023-04-01T00:36:51;28.15;;;8.10;;
54167;SDS011;68429;50.958;3.592;2023-04-01T00:39:18;21.65;;;8.52;;
54167;SDS011;68429;50.958;3.592;2023-04-01T00:41:44;19.75;;;7.70;;
54167;SDS011;68429;50.958;3.592;2023-04-01T00:46:47;22.35;;;9.05;;
54167;SDS011;68429;50.958;3.592;2023-04-01T00:49:14;23.98;;;9.52;;
54167;SDS011;68429;50.958;3.592;2023-04-01T00:51:44;23.05;;;8.15;;
54167;SDS011;68429;50.958;3.592;2023-04-01T00:54:13;27.77;;;9.43;;
54167;SDS011;68429;50.958;3.592;2023-04-01T00:56:41;26.67;;;8.82;;
54167;SDS011;68429;50.958;3.592;2023-04-01T00:59:14;23.65;;;7.38;;
54167;SDS011;68429;50.958;3.592;2023-04-01T01:01:45;27.27;;;8.32;;
54167;SDS011;68429;50.958;3.592;2023-04-01T01:04:24;25.27;;;7.13;;
54167;SDS011;68429;50.958;3.592;2023-04-01T01:12:15;28.23;;;5.90;;
54167;SDS011;68429;50.958;3.592;2023-04-01T01:17:31;17.30;;;5.90;;
54167;SDS011;68429;50.958;3.592;2023-04-01T01:32:30;27.05;;;4.65;;
54167;SDS011;68429;50.958;3.592;2023-04-01T01:37:36;23.75;;;4.45;;
54167;SDS011;68429;50.958;3.592;2023-04-01T01:40:05;28.42;;;7.03;;
54167;SDS011;68429;50.958;3.592;2023-04-01T01:42:34;30.13;;;5.80;;
54167;SDS011;68429;50.958;3.592;2023-04-01T01:47:30;20.88;;;5.35;;
54167;SDS011;68429;50.958;3.592;2023-04-01T01:49:57;21.00;;;5.28;;
54167;SDS011;68429;50.958;3.592;2023-04-01T01:52:24;27.05;;;6.57;;
54167;SDS011;68429;50.958;3.592;2023-04-01T01:54:54;34.63;;;7.82;;
54167;SDS011;68429;50.958;3.592;2023-04-01T01:57:23;33.65;;;9.13;;
54167;SDS011;68429;50.958;3.592;2023-04-01T01:59:55;29.70;;;7.72;;
54167;SDS011;68429;50.958;3.592;2023-04-01T02:02:28;27.40;;;9.13;;
54167;SDS011;68429;50.958;3.592;2023-04-01T02:04:56;26.83;;;7.95;;
54167;SDS011;68429;50.958;3.592;2023-04-01T02:07:28;30.20;;;9.82;;
54167;SDS011;68429;50.958;3.592;2023-04-01T02:09:58;33.08;;;11.10;;
54167;SDS011;68429;50.958;3.592;2023-04-01T02:12:25;33.33;;;10.85;;
54167;SDS011;68429;50.958;3.592;2023-04-01T02:14:52;33.33;;;11.02;;
54167;SDS011;68429;50.958;3.592;2023-04-01T02:17:21;31.95;;;9.00;;
54167;SDS011;68429;50.958;3.592;2023-04-01T02:22:37;34.72;;;9.88;;
54167;SDS011;68429;50.958;3.592;2023-04-01T02:25:17;30.67;;;9.45;;
54167;SDS011;68429;50.958;3.592;2023-04-01T02:27:47;26.10;;;8.55;;
54167;SDS011;68429;50.958;3.592;2023-04-01T02:30:16;34.60;;;8.35;;
54167;SDS011;68429;50.958;3.592;2023-04-01T02:32:43;29.00;;;7.93;;
54167;SDS011;68429;50.958;3.592;2023-04-01T02:35:10;26.98;;;7.32;;
54167;SDS011;68429;50.958;3.592;2023-04-01T02:37:38;42.10;;;8.80;;
54167;SDS011;68429;50.958;3.592;2023-04-01T02:40:09;21.30;;;6.15;;
54167;SDS011;68429;50.958;3.592;2023-04-01T02:42:37;17.88;;;5.97;;
54167;SDS011;68429;50.958;3.592;2023-04-01T02:45:03;20.75;;;6.32;;
54167;SDS011;68429;50.958;3.592;2023-04-01T02:47:29;21.20;;;6.70;;
54167;SDS011;68429;50.958;3.592;2023-04-01T02:49:55;26.15;;;5.80;;
54167;SDS011;68429;50.958;3.592;2023-04-01T02:52:27;28.30;;;6.95;;
54167;SDS011;68429;50.958;3.592;2023-04-01T02:54:54;23.35;;;6.70;;
54167;SDS011;68429;50.958;3.592;2023-04-01T02:57:20;19.60;;;6.35;;
54167;SDS011;68429;50.958;3.592;2023-04-01T02:59:46;29.27;;;6.45;;
54167;SDS011;68429;50.958;3.592;2023-04-01T03:02:12;14.90;;;5.75;;
54167;SDS011;68429;50.958;3.592;2023-04-01T03:04:38;22.88;;;7.43;;
54167;SDS011;68429;50.958;3.592;2023-04-01T03:07:04;21.83;;;7.80;;
54167;SDS011;68429;50.958;3.592;2023-04-01T03:09:30;17.55;;;7.07;;
54167;SDS011;68429;50.958;3.592;2023-04-01T03:11:55;17.20;;;6.30;;
54167;SDS011;68429;50.958;3.592;2023-04-01T03:14:21;14.15;;;6.20;;
54167;SDS011;68429;50.958;3.592;2023-04-01T03:16:47;18.92;;;6.95;;
54167;SDS011;68429;50.958;3.592;2023-04-01T03:19:13;28.08;;;7.63;;
54167;SDS011;68429;50.958;3.592;2023-04-01T03:21:39;23.45;;;7.15;;
54167;SDS011;68429;50.958;3.592;2023-04-01T03:24:05;12.68;;;5.65;;
54167;SDS011;68429;50.958;3.592;2023-04-01T03:26:31;17.52;;;7.53;;
54167;SDS011;68429;50.958;3.592;2023-04-01T03:28:57;19.15;;;6.60;;
54167;SDS011;68429;50.958;3.592;2023-04-01T03:31:23;17.23;;;6.93;;
54167;SDS011;68429;50.958;3.592;2023-04-01T03:33:48;24.38;;;7.22;;
54167;SDS011;68429;50.958;3.592;2023-04-01T03:36:14;17.73;;;6.50;;
54167;SDS011;68429;50.958;3.592;2023-04-01T03:38:40;16.85;;;6.45;;
54167;SDS011;68429;50.958;3.592;2023-04-01T03:41:07;17.90;;;7.35;;
54167;SDS011;68429;50.958;3.592;2023-04-01T03:43:36;19.98;;;7.13;;
54167;SDS011;68429;50.958;3.592;2023-04-01T03:46:01;17.67;;;7.07;;
54167;SDS011;68429;50.958;3.592;2023-04-01T03:48:27;14.02;;;5.65;;
54167;SDS011;68429;50.958;3.592;2023-04-01T03:50:53;11.30;;;5.43;;
54167;SDS011;68429;50.958;3.592;2023-04-01T03:53:18;12.65;;;6.38;;
54167;SDS011;68429;50.958;3.592;2023-04-01T03:55:44;15.40;;;6.10;;
54167;SDS011;68429;50.958;3.592;2023-04-01T03:58:10;16.90;;;7.57;;
54167;SDS011;68429;50.958;3.592;2023-04-01T04:00:36;17.55;;;7.10;;
54167;SDS011;68429;50.958;3.592;2023-04-01T04:03:01;20.20;;;7.93;;
54167;SDS011;68429;50.958;3.592;2023-04-01T04:05:27;16.25;;;7.38;;
54167;SDS011;68429;50.958;3.592;2023-04-01T04:07:53;31.38;;;8.05;;
54167;SDS011;68429;50.958;3.592;2023-04-01T04:10:19;16.40;;;8.20;;
54167;SDS011;68429;50.958;3.592;2023-04-01T04:12:45;22.60;;;8.98;;
54167;SDS011;68429;50.958;3.592;2023-04-01T04:15:11;34.80;;;9.77;;
54167;SDS011;68429;50.958;3.592;2023-04-01T04:17:37;20.05;;;9.88;;
54167;SDS011;68429;50.958;3.592;2023-04-01T04:20:03;18.90;;;9.35;;
54167;SDS011;68429;50.958;3.592;2023-04-01T04:22:29;22.33;;;10.85;;
54167;SDS011;68429;50.958;3.592;2023-04-01T04:24:55;21.20;;;8.90;;
54167;SDS011;68429;50.958;3.592;2023-04-01T04:27:20;24.33;;;10.02;;
54167;SDS011;68429;50.958;3.592;2023-04-01T04:29:46;23.27;;;10.05;;
54167;SDS011;68429;50.958;3.592;2023-04-01T04:32:12;14.77;;;9.05;;
54167;SDS011;68429;50.958;3.592;2023-04-01T04:34:37;26.90;;;9.70;;
54167;SDS011;68429;50.958;3.592;2023-04-01T04:37:03;29.63;;;10.43;;
54167;SDS011;68429;50.958;3.592;2023-04-01T04:39:29;26.95;;;9.85;;
54167;SDS011;68429;50.958;3.592;2023-04-01T04:41:55;24.05;;;9.57;;
54167;SDS011;68429;50.958;3.592;2023-04-01T04:44:21;19.92;;;8.70;;
54167;SDS011;68429;50.958;3.592;2023-04-01T04:46:46;18.55;;;9.55;;
54167;SDS011;68429;50.958;3.592;2023-04-01T04:49:12;25.35;;;9.73;;
54167;SDS011;68429;50.958;3.592;2023-04-01T04:51:38;18.45;;;9.88;;
54167;SDS011;68429;50.958;3.592;2023-04-01T04:54:04;20.33;;;10.73;;
54167;SDS011;68429;50.958;3.592;2023-04-01T04:56:30;22.45;;;11.63;;
54167;SDS011;68429;50.958;3.592;2023-04-01T04:58:56;22.45;;;10.27;;
54167;SDS011;68429;50.958;3.592;2023-04-01T05:01:23;16.00;;;9.13;;
54167;SDS011;68429;50.958;3.592;2023-04-01T05:03:48;21.40;;;9.55;;
54167;SDS011;68429;50.958;3.592;2023-04-01T05:06:15;19.00;;;10.10;;
54167;SDS011;68429;50.958;3.592;2023-04-01T05:08:42;19.80;;;10.88;;
54167;SDS011;68429;50.958;3.592;2023-04-01T05:11:10;18.42;;;9.48;;
54167;SDS011;68429;50.958;3.592;2023-04-01T05:13:39;18.50;;;8.30;;
54167;SDS011;68429;50.958;3.592;2023-04-01T05:16:12;17.48;;;8.40;;
54167;SDS011;68429;50.958;3.592;2023-04-01T05:18:39;18.98;;;8.68;;
54167;SDS011;68429;50.958;3.592;2023-04-01T05:21:07;14.70;;;8.35;;
54167;SDS011;68429;50.958;3.592;2023-04-01T05:23:33;22.50;;;9.43;;
54167;SDS011;68429;50.958;3.592;2023-04-01T05:26:03;18.50;;;8.60;;
54167;SDS011;68429;50.958;3.592;2023-04-01T05:28:30;24.50;;;9.93;;
54167;SDS011;68429;50.958;3.592;2023-04-01T05:30:57;24.55;;;9.88;;
54167;SDS011;68429;50.958;3.592;2023-04-01T05:33:25;20.75;;;9.05;;
54167;SDS011;68429;50.958;3.592;2023-04-01T05:35:51;17.73;;;9.77;;
54167;SDS011;68429;50.958;3.592;2023-04-01T05:38:17;20.00;;;10.40;;
54167;SDS011;68429;50.958;3.592;2023-04-01T05:40:43;24.45;;;11.30;;
54167;SDS011;68429;50.958;3.592;2023-04-01T05:43:09;23.48;;;11.30;;
54167;SDS011;68429;50.958;3.592;2023-04-01T05:45:35;16.63;;;9.68;;
54167;SDS011;68429;50.958;3.592;2023-04-01T05:48:01;18.55;;;10.05;;
54167;SDS011;68429;50.958;3.592;2023-04-01T05:50:27;22.63;;;9.98;;
54167;SDS011;68429;50.958;3.592;2023-04-01T05:52:53;22.58;;;9.98;;
54167;SDS011;68429;50.958;3.592;2023-04-01T05:55:19;18.75;;;10.80;;
54167;SDS011;68429;50.958;3.592;2023-04-01T05:57:45;18.02;;;9.75;;
54167;SDS011;68429;50.958;3.592;2023-04-01T06:00:13;29.33;;;11.35;;
54167;SDS011;68429;50.958;3.592;2023-04-01T06:02:40;21.55;;;9.93;;
54167;SDS011;68429;50.958;3.592;2023-04-01T06:05:14;17.88;;;9.75;;
54167;SDS011;68429;50.958;3.592;2023-04-01T06:07:50;22.05;;;9.50;;
54167;SDS011;68429;50.958;3.592;2023-04-01T06:10:20;14.02;;;8.80;;
54167;SDS011;68429;50.958;3.592;2023-04-01T06:18:21;19.15;;;8.10;;
54167;SDS011;68429;50.958;3.592;2023-04-01T06:26:39;15.63;;;8.25;;
54167;SDS011;68429;50.958;3.592;2023-04-01T06:37:15;11.85;;;7.05;;
54167;SDS011;68429;50.958;3.592;2023-04-01T06:42:28;10.02;;;6.20;;
54167;SDS011;68429;50.958;3.592;2023-04-01T06:47:54;7.00;;;4.75;;
54167;SDS011;68429;50.958;3.592;2023-04-01T06:50:37;7.75;;;4.30;;
54167;SDS011;68429;50.958;3.592;2023-04-01T06:55:46;4.85;;;3.30;;
54167;SDS011;68429;50.958;3.592;2023-04-01T06:58:21;4.63;;;2.60;;
54167;SDS011;68429;50.958;3.592;2023-04-01T07:01:00;3.25;;;2.55;;
54167;SDS011;68429;50.958;3.592;2023-04-01T07:03:43;8.73;;;3.50;;
54167;SDS011;68429;50.958;3.592;2023-04-01T07:09:10;7.30;;;4.55;;
54167;SDS011;68429;50.958;3.592;2023-04-01T07:11:39;7.03;;;5.75;;
54167;SDS011;68429;50.958;3.592;2023-04-01T07:14:10;11.27;;;5.05;;
54167;SDS011;68429;50.958;3.592;2023-04-01T07:16:44;12.68;;;4.90;;
54167;SDS011;68429;50.958;3.592;2023-04-01T07:19:27;8.70;;;4.55;;
54167;SDS011;68429;50.958;3.592;2023-04-01T07:22:06;4.32;;;3.20;;
54167;SDS011;68429;50.958;3.592;2023-04-01T07:24:51;8.02;;;3.60;;
54167;SDS011;68429;50.958;3.592;2023-04-01T07:27:19;4.70;;;2.90;;
54167;SDS011;68429;50.958;3.592;2023-04-01T07:29:45;6.40;;;3.53;;
54167;SDS011;68429;50.958;3.592;2023-04-01T07:32:19;8.07;;;2.85;;
54167;SDS011;68429;50.958;3.592;2023-04-01T07:34:50;5.15;;;2.63;;
54167;SDS011;68429;50.958;3.592;2023-04-01T07:38:08;6.18;;;2.50;;
54167;SDS011;68429;50.958;3.592;2023-04-01T07:49:10;6.40;;;2.40;;
54167;SDS011;68429;50.958;3.592;2023-04-01T07:51:42;6.40;;;3.30;;
54167;SDS011;68429;50.958;3.592;2023-04-01T07:57:07;7.53;;;3.80;;
54167;SDS011;68429;50.958;3.592;2023-04-01T08:00:06;6.50;;;2.97;;
54167;SDS011;68429;50.958;3.592;2023-04-01T08:05:27;4.05;;;2.72;;
54167;SDS011;68429;50.958;3.592;2023-04-01T08:18:33;8.57;;;2.47;;
54167;SDS011;68429;50.958;3.592;2023-04-01T08:21:15;6.35;;;2.38;;
54167;SDS011;68429;50.958;3.592;2023-04-01T08:23:48;6.95;;;2.67;;
54167;SDS011;68429;50.958;3.592;2023-04-01T08:26:23;6.20;;;2.20;;
54167;SDS011;68429;50.958;3.592;2023-04-01T08:32:24;2.28;;;1.35;;
54167;SDS011;68429;50.958;3.592;2023-04-01T08:35:07;1.45;;;1.33;;
54167;SDS011;68429;50.958;3.592;2023-04-01T08:37:54;1.70;;;1.50;;
54167;SDS011;68429;50.958;3.592;2023-04-01T08:54:08;4.18;;;2.38;;
54167;SDS011;68429;50.958;3.592;2023-04-01T09:05:22;3.25;;;2.50;;
54167;SDS011;68429;50.958;3.592;2023-04-01T09:08:59;4.78;;;2.83;;
54167;SDS011;68429;50.958;3.592;2023-04-01T09:11:06;7.38;;;2.63;;
54167;SDS011;68429;50.958;3.592;2023-04-01T09:39:37;5.13;;;2.10;;
54167;SDS011;68429;50.958;3.592;2023-04-01T09:45:00;4.72;;;1.77;;
54167;SDS011;68429;50.958;3.592;2023-04-01T10:13:56;2.03;;;1.58;;
54167;SDS011;68429;50.958;3.592;2023-04-01T10:36:35;5.78;;;2.00;;
54167;SDS011;68429;50.958;3.592;2023-04-01T10:53:17;11.15;;;2.63;;
54167;SDS011;68429;50.958;3.592;2023-04-01T11:20:54;2.60;;;1.65;;
54167;SDS011;68429;50.958;3.592;2023-04-01T11:46:28;3.05;;;1.35;;
54167;SDS011;68429;50.958;3.592;2023-04-01T12:00:18;3.08;;;1.27;;
54167;SDS011;68429;50.958;3.592;2023-04-01T12:08:15;2.25;;;1.63;;
54167;SDS011;68429;50.958;3.592;2023-04-01T12:11:06;3.60;;;1.48;;
54167;SDS011;68429;50.958;3.592;2023-04-01T12:19:43;2.40;;;1.63;;
54167;SDS011;68429;50.958;3.592;2023-04-01T12:55:52;1.20;;;1.10;;
54167;SDS011;68429;50.958;3.592;2023-04-01T13:03:47;4.65;;;0.73;;
54167;SDS011;68429;50.958;3.592;2023-04-01T13:06:25;4.25;;;1.15;;
54167;SDS011;68429;50.958;3.592;2023-04-01T13:17:31;2.40;;;1.40;;
54167;SDS011;68429;50.958;3.592;2023-04-01T13:20:23;2.22;;;1.15;;
54167;SDS011;68429;50.958;3.592;2023-04-01T13:23:18;4.00;;;1.15;;
54167;SDS011;68429;50.958;3.592;2023-04-01T13:25:54;4.93;;;1.15;;
54167;SDS011;68429;50.958;3.592;2023-04-01T13:29:02;4.43;;;1.08;;
54167;SDS011;68429;50.958;3.592;2023-04-01T13:42:45;2.95;;;1.00;;
54167;SDS011;68429;50.958;3.592;2023-04-01T13:45:23;4.07;;;0.77;;
54167;SDS011;68429;50.958;3.592;2023-04-01T13:53:49;5.85;;;1.42;;
54167;SDS011;68429;50.958;3.592;2023-04-01T14:05:32;4.50;;;1.08;;
54167;SDS011;68429;50.958;3.592;2023-04-01T14:08:38;2.75;;;1.00;;
54167;SDS011;68429;50.958;3.592;2023-04-01T14:11:17;5.07;;;0.90;;
54167;SDS011;68429;50.958;3.592;2023-04-01T14:13:58;3.67;;;2.28;;
54167;SDS011;68429;50.958;3.592;2023-04-01T14:24:32;2.80;;;1.60;;
54167;SDS011;68429;50.958;3.592;2023-04-01T14:43:36;5.07;;;1.85;;
54167;SDS011;68429;50.958;3.592;2023-04-01T14:48:51;5.32;;;2.05;;
54167;SDS011;68429;50.958;3.592;2023-04-01T14:51:20;7.22;;;3.17;;
54167;SDS011;68429;50.958;3.592;2023-04-01T14:56:37;2.50;;;1.50;;
54167;SDS011;68429;50.958;3.592;2023-04-01T14:59:08;7.15;;;1.40;;
54167;SDS011;68429;50.958;3.592;2023-04-01T15:07:52;3.88;;;1.33;;
54167;SDS011;68429;50.958;3.592;2023-04-01T15:21:16;4.00;;;1.58;;
54167;SDS011;68429;50.958;3.592;2023-04-01T15:34:57;4.07;;;1.30;;
54167;SDS011;68429;50.958;3.592;2023-04-01T16:00:11;5.90;;;2.13;;
54167;SDS011;68429;50.958;3.592;2023-04-01T16:02:54;5.47;;;1.50;;
54167;SDS011;68429;50.958;3.592;2023-04-01T16:09:19;7.68;;;2.28;;
54167;SDS011;68429;50.958;3.592;2023-04-01T16:11:53;3.90;;;1.42;;
54167;SDS011;68429;50.958;3.592;2023-04-01T16:17:31;18.85;;;10.75;;
54167;SDS011;68429;50.958;3.592;2023-04-01T16:20:21;15.90;;;6.53;;
54167;SDS011;68429;50.958;3.592;2023-04-01T16:23:17;4.40;;;2.38;;
54167;SDS011;68429;50.958;3.592;2023-04-01T16:26:28;4.93;;;2.13;;
54167;SDS011;68429;50.958;3.592;2023-04-01T16:36:50;4.70;;;2.13;;
54167;SDS011;68429;50.958;3.592;2023-04-01T16:45:31;12.30;;;2.42;;
54167;SDS011;68429;50.958;3.592;2023-04-01T16:48:18;8.27;;;3.00;;
54167;SDS011;68429;50.958;3.592;2023-04-01T16:50:53;11.38;;;2.30;;
54167;SDS011;68429;50.958;3.592;2023-04-01T16:53:44;9.40;;;2.47;;
54167;SDS011;68429;50.958;3.592;2023-04-01T16:56:39;10.82;;;4.63;;
54167;SDS011;68429;50.958;3.592;2023-04-01T16:59:17;11.07;;;3.50;;
54167;SDS011;68429;50.958;3.592;2023-04-01T17:01:57;11.50;;;4.28;;
54167;SDS011;68429;50.958;3.592;2023-04-01T17:07:38;22.20;;;14.93;;
54167;SDS011;68429;50.958;3.592;2023-04-01T17:13:03;15.48;;;5.10;;
54167;SDS011;68429;50.958;3.592;2023-04-01T17:21:47;8.30;;;3.50;;
54167;SDS011;68429;50.958;3.592;2023-04-01T17:33:10;12.38;;;4.00;;
54167;SDS011;68429;50.958;3.592;2023-04-01T17:39:13;12.18;;;3.58;;
54167;SDS011;68429;50.958;3.592;2023-04-01T17:42:11;12.27;;;3.67;;
54167;SDS011;68429;50.958;3.592;2023-04-01T17:47:28;7.53;;;3.45;;
54167;SDS011;68429;50.958;3.592;2023-04-01T17:56:08;6.05;;;2.47;;
54167;SDS011;68429;50.958;3.592;2023-04-01T18:01:51;2.30;;;1.92;;
54167;SDS011;68429;50.958;3.592;2023-04-01T18:07:13;8.75;;;2.83;;
54167;SDS011;68429;50.958;3.592;2023-04-01T18:09:53;5.63;;;2.40;;
54167;SDS011;68429;50.958;3.592;2023-04-01T18:23:41;9.95;;;4.10;;
54167;SDS011;68429;50.958;3.592;2023-04-01T18:26:20;10.82;;;4.40;;
54167;SDS011;68429;50.958;3.592;2023-04-01T18:31:49;16.58;;;4.90;;
54167;SDS011;68429;50.958;3.592;2023-04-01T18:37:27;14.20;;;5.20;;
54167;SDS011;68429;50.958;3.592;2023-04-01T18:40:10;16.63;;;6.30;;
54167;SDS011;68429;50.958;3.592;2023-04-01T18:43:04;20.40;;;6.35;;
54167;SDS011;68429;50.958;3.592;2023-04-01T18:51:14;22.52;;;6.65;;
54167;SDS011;68429;50.958;3.592;2023-04-01T18:53:54;19.15;;;7.28;;
54167;SDS011;68429;50.958;3.592;2023-04-01T19:02:07;19.52;;;8.15;;
54167;SDS011;68429;50.958;3.592;2023-04-01T19:05:02;20.90;;;9.80;;
54167;SDS011;68429;50.958;3.592;2023-04-01T19:10:12;22.17;;;9.00;;
54167;SDS011;68429;50.958;3.592;2023-04-01T19:12:43;22.08;;;9.73;;
54167;SDS011;68429;50.958;3.592;2023-04-01T19:15:20;27.02;;;10.23;;
54167;SDS011;68429;50.958;3.592;2023-04-01T19:21:29;35.75;;;10.32;;
54167;SDS011;68429;50.958;3.592;2023-04-01T19:24:01;27.10;;;11.05;;
54167;SDS011;68429;50.958;3.592;2023-04-01T19:26:40;25.88;;;11.73;;
54167;SDS011;68429;50.958;3.592;2023-04-01T19:32:00;27.30;;;11.88;;
54167;SDS011;68429;50.958;3.592;2023-04-01T19:40:55;33.63;;;11.75;;
54167;SDS011;68429;50.958;3.592;2023-04-01T19:52:18;37.78;;;11.50;;
54167;SDS011;68429;50.958;3.592;2023-04-01T19:54:56;40.33;;;11.13;;
54167;SDS011;68429;50.958;3.592;2023-04-01T20:00:26;34.47;;;10.82;;
54167;SDS011;68429;50.958;3.592;2023-04-01T20:08:49;43.85;;;12.43;;
54167;SDS011;68429;50.958;3.592;2023-04-01T20:11:37;38.17;;;11.45;;
54167;SDS011;68429;50.958;3.592;2023-04-01T20:22:38;60.80;;;14.70;;
54167;SDS011;68429;50.958;3.592;2023-04-01T20:25:23;49.55;;;13.20;;
54167;SDS011;68429;50.958;3.592;2023-04-01T20:30:55;41.88;;;13.45;;
54167;SDS011;68429;50.958;3.592;2023-04-01T20:41:23;39.40;;;12.32;;
54167;SDS011;68429;50.958;3.592;2023-04-01T20:44:11;37.30;;;13.00;;
54167;SDS011;68429;50.958;3.592;2023-04-01T20:52:56;33.90;;;13.48;;
54167;SDS011;68429;50.958;3.592;2023-04-01T20:58:38;43.13;;;12.98;;
54167;SDS011;68429;50.958;3.592;2023-04-01T21:28:38;55.38;;;18.45;;
54167;SDS011;68429;50.958;3.592;2023-04-01T21:34:00;58.13;;;21.00;;
54167;SDS011;68429;50.958;3.592;2023-04-01T21:45:06;60.08;;;21.23;;
54167;SDS011;68429;50.958;3.592;2023-04-01T21:47:57;69.40;;;22.38;;
54167;SDS011;68429;50.958;3.592;2023-04-01T21:50:39;55.67;;;19.48;;
54167;SDS011;68429;50.958;3.592;2023-04-01T22:09:12;84.60;;;24.63;;
54167;SDS011;68429;50.958;3.592;2023-04-01T22:22:45;89.43;;;25.60;;
54167;SDS011;68429;50.958;3.592;2023-04-01T22:25:38;84.93;;;25.85;;
54167;SDS011;68429;50.958;3.592;2023-04-01T22:28:17;88.53;;;26.40;;
54167;SDS011;68429;50.958;3.592;2023-04-01T22:30:59;86.85;;;26.38;;
54167;SDS011;68429;50.958;3.592;2023-04-01T22:33:40;78.72;;;26.83;;
54167;SDS011;68429;50.958;3.592;2023-04-01T22:38:59;94.43;;;26.88;;
54167;SDS011;68429;50.958;3.592;2023-04-01T22:44:29;78.70;;;29.02;;
54167;SDS011;68429;50.958;3.592;2023-04-01T22:49:36;85.93;;;29.15;;
54167;SDS011;68429;50.958;3.592;2023-04-01T22:55:10;87.68;;;28.35;;
54167;SDS011;68429;50.958;3.592;2023-04-01T23:00:13;76.60;;;27.33;;
54167;SDS011;68429;50.958;3.592;2023-04-01T23:03:20;73.28;;;26.95;;
54167;SDS011;68429;50.958;3.592;2023-04-01T23:05:57;78.55;;;28.10;;
54167;SDS011;68429;50.958;3.592;2023-04-01T23:11:03;65.93;;;25.42;;
54167;SDS011;68429;50.958;3.592;2023-04-01T23:13:34;73.00;;;24.73;;
54167;SDS011;68429;50.958;3.592;2023-04-01T23:16:03;75.18;;;24.98;;
54167;SDS011;68429;50.958;3.592;2023-04-01T23:18:37;69.50;;;25.40;;
54167;SDS011;68429;50.958;3.592;2023-04-01T23:21:26;59.17;;;24.77;;
54167;SDS011;68429;50.958;3.592;2023-04-01T23:24:03;64.78;;;23.33;;
54167;SDS011;68429;50.958;3.592;2023-04-01T23:27:11;69.75;;;23.75;;
54167;SDS011;68429;50.958;3.592;2023-04-01T23:29:35;65.68;;;21.55;;
54167;SDS011;68429;50.958;3.592;2023-04-01T23:32:03;50.80;;;21.98;;
54167;SDS011;68429;50.958;3.592;2023-04-01T23:34:30;49.88;;;21.13;;
54167;SDS011;68429;50.958;3.592;2023-04-01T23:37:04;52.28;;;21.02;;
54167;SDS011;68429;50.958;3.592;2023-04-01T23:39:35;53.05;;;21.50;;
54167;SDS011;68429;50.958;3.592;2023-04-01T23:42:13;62.53;;;24.20;;
54167;SDS011;68429;50.958;3.592;2023-04-01T23:44:41;56.97;;;25.58;;
54167;SDS011;68429;50.958;3.592;2023-04-01T23:47:09;61.53;;;25.08;;
54167;SDS011;68429;50.958;3.592;2023-04-01T23:49:43;58.55;;;26.23;;
54167;SDS011;68429;50.958;3.592;2023-04-01T23:52:24;64.25;;;27.55;;
54167;SDS011;68429;50.958;3.592;2023-04-01T23:54:59;63.90;;;27.05;;
54167;SDS011;68429;50.958;3.592;2023-04-01T23:57:32;70.95;;;28.55;;
